sensor_id;sensor_type;location;lat;lon;timestamp;temperature;humidity
10911;DHT22;5508;49.150;11.030;2022-10-24T00:02:00;13.60;99.90
10911;DHT22;5508;49.150;11.030;2022-10-24T00:05:01;13.50;99.90
10911;DHT22;5508;49.150;11.030;2022-10-24T00:08:02;13.50;99.90
10911;DHT22;5508;49.150;11.030;2022-10-24T00:11:09;13.40;99.90
10911;DHT22;5508;49.150;11.030;2022-10-24T00:14:10;13.30;99.90
10911;DHT22;5508;49.150;11.030;2022-10-24T00:17:11;13.20;99.90
10911;DHT22;5508;49.150;11.030;2022-10-24T00:20:12;13.20;99.90
10911;DHT22;5508;49.150;11.030;2022-10-24T00:23:12;13.20;99.90
10911;DHT22;5508;49.150;11.030;2022-10-24T00:26:13;13.10;99.90
10911;DHT22;5508;49.150;11.030;2022-10-24T00:29:15;13.00;99.90
10911;DHT22;5508;49.150;11.030;2022-10-24T00:32:15;13.00;99.90
10911;DHT22;5508;49.150;11.030;2022-10-24T00:35:16;13.00;99.90
10911;DHT22;5508;49.150;11.030;2022-10-24T00:38:16;13.00;99.90
10911;DHT22;5508;49.150;11.030;2022-10-24T00:41:26;13.00;99.90
10911;DHT22;5508;49.150;11.030;2022-10-24T00:44:29;13.00;99.90
10911;DHT22;5508;49.150;11.030;2022-10-24T00:47:30;13.00;99.90
10911;DHT22;5508;49.150;11.030;2022-10-24T00:50:31;13.00;99.90
10911;DHT22;5508;49.150;11.030;2022-10-24T00:53:34;13.00;99.90
10911;DHT22;5508;49.150;11.030;2022-10-24T00:56:43;13.00;99.90
10911;DHT22;5508;49.150;11.030;2022-10-24T00:59:48;13.10;99.90
10911;DHT22;5508;49.150;11.030;2022-10-24T01:02:51;13.10;99.90
10911;DHT22;5508;49.150;11.030;2022-10-24T01:16:12;13.00;99.90
10911;DHT22;5508;49.150;11.030;2022-10-24T01:22:42;13.10;99.90
10911;DHT22;5508;49.150;11.030;2022-10-24T01:28:55;13.20;99.90
10911;DHT22;5508;49.150;11.030;2022-10-24T01:35:23;13.30;99.90
10911;DHT22;5508;49.150;11.030;2022-10-24T01:38:40;13.30;99.90
10911;DHT22;5508;49.150;11.030;2022-10-24T01:41:41;13.30;99.90
10911;DHT22;5508;49.150;11.030;2022-10-24T01:44:48;13.30;99.90
10911;DHT22;5508;49.150;11.030;2022-10-24T01:47:53;13.30;99.90
10911;DHT22;5508;49.150;11.030;2022-10-24T01:50:55;13.30;99.90
10911;DHT22;5508;49.150;11.030;2022-10-24T01:53:56;13.40;99.90
10911;DHT22;5508;49.150;11.030;2022-10-24T01:56:57;13.40;99.90
10911;DHT22;5508;49.150;11.030;2022-10-24T01:59:58;13.30;99.90
10911;DHT22;5508;49.150;11.030;2022-10-24T02:03:30;13.20;99.90
10911;DHT22;5508;49.150;11.030;2022-10-24T02:06:39;13.20;99.90
10911;DHT22;5508;49.150;11.030;2022-10-24T02:09:42;13.10;99.90
10911;DHT22;5508;49.150;11.030;2022-10-24T02:12:48;13.10;99.90
10911;DHT22;5508;49.150;11.030;2022-10-24T02:15:54;13.20;99.90
10911;DHT22;5508;49.150;11.030;2022-10-24T02:18:57;13.20;99.90
10911;DHT22;5508;49.150;11.030;2022-10-24T02:22:10;13.20;99.90
10911;DHT22;5508;49.150;11.030;2022-10-24T02:25:46;13.10;99.90
10911;DHT22;5508;49.150;11.030;2022-10-24T02:28:48;13.10;99.90
10911;DHT22;5508;49.150;11.030;2022-10-24T02:31:54;13.20;99.90
10911;DHT22;5508;49.150;11.030;2022-10-24T02:34:57;13.00;99.90
10911;DHT22;5508;49.150;11.030;2022-10-24T02:38:05;13.00;99.90
10911;DHT22;5508;49.150;11.030;2022-10-24T02:41:10;12.90;99.90
10911;DHT22;5508;49.150;11.030;2022-10-24T02:44:12;13.00;99.90
10911;DHT22;5508;49.150;11.030;2022-10-24T02:47:15;12.90;99.90
10911;DHT22;5508;49.150;11.030;2022-10-24T02:50:17;12.90;99.90
10911;DHT22;5508;49.150;11.030;2022-10-24T02:53:20;12.90;99.90
10911;DHT22;5508;49.150;11.030;2022-10-24T02:56:21;12.90;99.90
10911;DHT22;5508;49.150;11.030;2022-10-24T02:59:21;12.90;99.90
10911;DHT22;5508;49.150;11.030;2022-10-24T03:02:22;12.90;99.90
10911;DHT22;5508;49.150;11.030;2022-10-24T03:05:23;13.00;99.90
10911;DHT22;5508;49.150;11.030;2022-10-24T03:08:24;13.00;99.90
10911;DHT22;5508;49.150;11.030;2022-10-24T03:11:24;13.00;99.90
10911;DHT22;5508;49.150;11.030;2022-10-24T03:14:25;13.10;99.90
10911;DHT22;5508;49.150;11.030;2022-10-24T03:17:26;13.10;99.90
10911;DHT22;5508;49.150;11.030;2022-10-24T03:20:26;13.10;99.90
10911;DHT22;5508;49.150;11.030;2022-10-24T03:23:27;13.10;99.90
10911;DHT22;5508;49.150;11.030;2022-10-24T03:26:28;13.10;99.90
10911;DHT22;5508;49.150;11.030;2022-10-24T03:29:28;13.20;99.90
10911;DHT22;5508;49.150;11.030;2022-10-24T03:32:29;13.20;99.90
10911;DHT22;5508;49.150;11.030;2022-10-24T03:35:29;13.20;99.90
10911;DHT22;5508;49.150;11.030;2022-10-24T03:38:30;13.20;99.90
10911;DHT22;5508;49.150;11.030;2022-10-24T03:41:30;13.20;99.90
10911;DHT22;5508;49.150;11.030;2022-10-24T03:44:31;13.30;99.90
10911;DHT22;5508;49.150;11.030;2022-10-24T03:47:32;13.30;99.90
10911;DHT22;5508;49.150;11.030;2022-10-24T03:50:32;13.40;99.90
10911;DHT22;5508;49.150;11.030;2022-10-24T03:53:33;13.40;99.90
10911;DHT22;5508;49.150;11.030;2022-10-24T03:56:34;13.40;99.90
10911;DHT22;5508;49.150;11.030;2022-10-24T03:59:35;13.40;99.90
10911;DHT22;5508;49.150;11.030;2022-10-24T04:02:36;13.40;99.90
10911;DHT22;5508;49.150;11.030;2022-10-24T04:05:37;13.40;99.90
10911;DHT22;5508;49.150;11.030;2022-10-24T04:08:37;13.50;99.90
10911;DHT22;5508;49.150;11.030;2022-10-24T04:11:38;13.50;99.90
10911;DHT22;5508;49.150;11.030;2022-10-24T04:14:39;13.50;99.90
10911;DHT22;5508;49.150;11.030;2022-10-24T04:17:40;13.50;99.90
10911;DHT22;5508;49.150;11.030;2022-10-24T04:20:40;13.60;99.90
10911;DHT22;5508;49.150;11.030;2022-10-24T04:23:41;13.60;99.90
10911;DHT22;5508;49.150;11.030;2022-10-24T04:26:43;13.60;99.90
10911;DHT22;5508;49.150;11.030;2022-10-24T04:29:44;13.60;99.90
10911;DHT22;5508;49.150;11.030;2022-10-24T04:32:44;13.50;99.90
10911;DHT22;5508;49.150;11.030;2022-10-24T04:35:49;13.50;99.90
10911;DHT22;5508;49.150;11.030;2022-10-24T04:38:49;13.60;99.90
10911;DHT22;5508;49.150;11.030;2022-10-24T04:41:50;13.50;99.90
10911;DHT22;5508;49.150;11.030;2022-10-24T04:44:51;13.50;99.90
10911;DHT22;5508;49.150;11.030;2022-10-24T04:47:51;13.50;99.90
10911;DHT22;5508;49.150;11.030;2022-10-24T04:50:52;13.50;99.90
10911;DHT22;5508;49.150;11.030;2022-10-24T04:53:52;13.40;99.90
10911;DHT22;5508;49.150;11.030;2022-10-24T04:56:53;13.40;99.90
10911;DHT22;5508;49.150;11.030;2022-10-24T04:59:54;13.40;99.90
10911;DHT22;5508;49.150;11.030;2022-10-24T05:02:54;13.40;99.90
10911;DHT22;5508;49.150;11.030;2022-10-24T05:05:55;13.40;99.90
10911;DHT22;5508;49.150;11.030;2022-10-24T05:08:55;13.30;99.90
10911;DHT22;5508;49.150;11.030;2022-10-24T05:11:56;13.30;99.90
10911;DHT22;5508;49.150;11.030;2022-10-24T05:14:57;13.30;99.90
10911;DHT22;5508;49.150;11.030;2022-10-24T05:17:58;13.30;99.90
10911;DHT22;5508;49.150;11.030;2022-10-24T05:21:00;13.30;99.90
10911;DHT22;5508;49.150;11.030;2022-10-24T05:24:00;13.30;99.90
10911;DHT22;5508;49.150;11.030;2022-10-24T05:27:01;13.30;99.90
10911;DHT22;5508;49.150;11.030;2022-10-24T05:30:02;13.30;99.90
10911;DHT22;5508;49.150;11.030;2022-10-24T05:33:03;13.30;99.90
10911;DHT22;5508;49.150;11.030;2022-10-24T05:36:04;13.30;99.90
10911;DHT22;5508;49.150;11.030;2022-10-24T05:39:05;13.40;99.90
10911;DHT22;5508;49.150;11.030;2022-10-24T05:42:06;13.50;99.90
10911;DHT22;5508;49.150;11.030;2022-10-24T05:45:08;13.70;99.90
10911;DHT22;5508;49.150;11.030;2022-10-24T05:48:09;13.90;99.90
10911;DHT22;5508;49.150;11.030;2022-10-24T05:51:10;14.00;99.90
10911;DHT22;5508;49.150;11.030;2022-10-24T05:54:10;14.10;99.90
10911;DHT22;5508;49.150;11.030;2022-10-24T05:57:11;14.00;99.90
10911;DHT22;5508;49.150;11.030;2022-10-24T06:00:14;14.10;99.90
10911;DHT22;5508;49.150;11.030;2022-10-24T06:03:15;14.10;99.90
10911;DHT22;5508;49.150;11.030;2022-10-24T06:06:16;14.10;99.90
10911;DHT22;5508;49.150;11.030;2022-10-24T06:09:17;14.20;99.90
10911;DHT22;5508;49.150;11.030;2022-10-24T06:12:17;14.20;99.90
10911;DHT22;5508;49.150;11.030;2022-10-24T06:15:18;14.30;99.90
10911;DHT22;5508;49.150;11.030;2022-10-24T06:18:18;14.30;99.90
10911;DHT22;5508;49.150;11.030;2022-10-24T06:21:19;14.30;99.90
10911;DHT22;5508;49.150;11.030;2022-10-24T06:24:19;14.30;99.90
10911;DHT22;5508;49.150;11.030;2022-10-24T06:27:20;14.30;99.90
10911;DHT22;5508;49.150;11.030;2022-10-24T06:30:21;14.20;99.90
10911;DHT22;5508;49.150;11.030;2022-10-24T06:33:21;14.20;99.90
10911;DHT22;5508;49.150;11.030;2022-10-24T06:36:22;14.30;99.90
10911;DHT22;5508;49.150;11.030;2022-10-24T06:39:23;14.30;99.90
10911;DHT22;5508;49.150;11.030;2022-10-24T06:42:23;14.30;99.90
10911;DHT22;5508;49.150;11.030;2022-10-24T06:45:24;14.30;99.90
10911;DHT22;5508;49.150;11.030;2022-10-24T06:48:25;14.30;99.90
10911;DHT22;5508;49.150;11.030;2022-10-24T06:51:25;14.20;99.90
10911;DHT22;5508;49.150;11.030;2022-10-24T06:54:26;14.20;99.90
10911;DHT22;5508;49.150;11.030;2022-10-24T06:57:27;14.30;99.90
10911;DHT22;5508;49.150;11.030;2022-10-24T07:00:27;14.20;99.90
10911;DHT22;5508;49.150;11.030;2022-10-24T07:03:28;14.30;99.90
10911;DHT22;5508;49.150;11.030;2022-10-24T07:06:29;14.40;99.90
10911;DHT22;5508;49.150;11.030;2022-10-24T07:09:30;14.40;99.90
10911;DHT22;5508;49.150;11.030;2022-10-24T07:12:30;14.50;99.90
10911;DHT22;5508;49.150;11.030;2022-10-24T07:15:31;14.40;99.90
10911;DHT22;5508;49.150;11.030;2022-10-24T07:18:32;14.40;99.90
10911;DHT22;5508;49.150;11.030;2022-10-24T07:21:32;14.50;99.90
10911;DHT22;5508;49.150;11.030;2022-10-24T07:24:33;14.60;99.90
10911;DHT22;5508;49.150;11.030;2022-10-24T07:27:34;14.50;99.90
10911;DHT22;5508;49.150;11.030;2022-10-24T07:30:35;14.50;99.90
10911;DHT22;5508;49.150;11.030;2022-10-24T07:33:36;14.50;99.90
10911;DHT22;5508;49.150;11.030;2022-10-24T07:36:38;14.50;99.90
10911;DHT22;5508;49.150;11.030;2022-10-24T07:39:39;14.60;99.90
10911;DHT22;5508;49.150;11.030;2022-10-24T07:42:39;14.50;99.90
10911;DHT22;5508;49.150;11.030;2022-10-24T07:45:41;14.50;99.90
10911;DHT22;5508;49.150;11.030;2022-10-24T07:48:42;14.40;99.90
10911;DHT22;5508;49.150;11.030;2022-10-24T07:51:43;14.30;99.90
10911;DHT22;5508;49.150;11.030;2022-10-24T07:54:44;14.20;99.90
10911;DHT22;5508;49.150;11.030;2022-10-24T07:57:44;14.00;99.90
10911;DHT22;5508;49.150;11.030;2022-10-24T08:00:45;13.80;99.90
10911;DHT22;5508;49.150;11.030;2022-10-24T08:03:46;13.80;99.90
10911;DHT22;5508;49.150;11.030;2022-10-24T08:06:47;13.70;99.90
10911;DHT22;5508;49.150;11.030;2022-10-24T08:09:47;13.90;99.90
10911;DHT22;5508;49.150;11.030;2022-10-24T08:12:50;13.90;99.90
10911;DHT22;5508;49.150;11.030;2022-10-24T08:15:51;14.00;99.90
10911;DHT22;5508;49.150;11.030;2022-10-24T08:18:52;14.00;99.90
10911;DHT22;5508;49.150;11.030;2022-10-24T08:21:54;14.10;99.90
10911;DHT22;5508;49.150;11.030;2022-10-24T08:24:55;14.10;99.90
10911;DHT22;5508;49.150;11.030;2022-10-24T08:27:55;14.20;99.90
10911;DHT22;5508;49.150;11.030;2022-10-24T08:31:01;14.20;99.90
10911;DHT22;5508;49.150;11.030;2022-10-24T08:34:02;14.40;99.90
10911;DHT22;5508;49.150;11.030;2022-10-24T08:37:05;14.50;99.90
10911;DHT22;5508;49.150;11.030;2022-10-24T08:40:07;14.60;99.90
10911;DHT22;5508;49.150;11.030;2022-10-24T08:43:10;14.60;99.90
10911;DHT22;5508;49.150;11.030;2022-10-24T08:49:29;14.50;99.90
10911;DHT22;5508;49.150;11.030;2022-10-24T08:52:56;14.50;99.90
10911;DHT22;5508;49.150;11.030;2022-10-24T08:56:00;14.50;99.90
10911;DHT22;5508;49.150;11.030;2022-10-24T08:59:02;14.50;99.90
10911;DHT22;5508;49.150;11.030;2022-10-24T09:02:19;14.50;99.90
10911;DHT22;5508;49.150;11.030;2022-10-24T09:05:38;14.60;99.90
10911;DHT22;5508;49.150;11.030;2022-10-24T09:08:54;14.60;99.90
10911;DHT22;5508;49.150;11.030;2022-10-24T09:12:00;14.80;99.90
10911;DHT22;5508;49.150;11.030;2022-10-24T09:15:02;14.90;99.90
10911;DHT22;5508;49.150;11.030;2022-10-24T09:18:23;14.90;99.90
10911;DHT22;5508;49.150;11.030;2022-10-24T09:21:25;14.90;99.90
10911;DHT22;5508;49.150;11.030;2022-10-24T09:27:40;14.80;99.90
10911;DHT22;5508;49.150;11.030;2022-10-24T09:30:41;14.80;99.90
10911;DHT22;5508;49.150;11.030;2022-10-24T09:33:44;14.70;99.90
10911;DHT22;5508;49.150;11.030;2022-10-24T09:36:45;14.60;99.90
10911;DHT22;5508;49.150;11.030;2022-10-24T09:39:45;14.60;99.90
10911;DHT22;5508;49.150;11.030;2022-10-24T09:42:58;14.50;99.90
10911;DHT22;5508;49.150;11.030;2022-10-24T09:46:08;14.40;99.90
10911;DHT22;5508;49.150;11.030;2022-10-24T09:52:26;14.30;99.90
10911;DHT22;5508;49.150;11.030;2022-10-24T09:55:28;14.20;99.90
10911;DHT22;5508;49.150;11.030;2022-10-24T09:58:30;14.00;99.90
10911;DHT22;5508;49.150;11.030;2022-10-24T10:01:33;14.00;99.90
10911;DHT22;5508;49.150;11.030;2022-10-24T10:04:34;14.00;99.90
10911;DHT22;5508;49.150;11.030;2022-10-24T10:07:40;14.00;99.90
10911;DHT22;5508;49.150;11.030;2022-10-24T10:10:41;14.00;99.90
10911;DHT22;5508;49.150;11.030;2022-10-24T10:13:44;14.00;99.90
10911;DHT22;5508;49.150;11.030;2022-10-24T10:17:04;14.00;99.90
10911;DHT22;5508;49.150;11.030;2022-10-24T10:20:05;14.00;99.90
10911;DHT22;5508;49.150;11.030;2022-10-24T10:26:43;14.00;99.90
10911;DHT22;5508;49.150;11.030;2022-10-24T10:29:44;14.00;99.90
10911;DHT22;5508;49.150;11.030;2022-10-24T10:36:16;14.10;99.90
10911;DHT22;5508;49.150;11.030;2022-10-24T10:42:26;14.20;99.90
10911;DHT22;5508;49.150;11.030;2022-10-24T10:45:53;14.20;99.90
10911;DHT22;5508;49.150;11.030;2022-10-24T10:49:31;14.30;99.90
10911;DHT22;5508;49.150;11.030;2022-10-24T10:52:41;14.40;99.90
10911;DHT22;5508;49.150;11.030;2022-10-24T10:59:33;14.60;99.90
10911;DHT22;5508;49.150;11.030;2022-10-24T11:12:24;14.80;99.90
10911;DHT22;5508;49.150;11.030;2022-10-24T11:15:36;14.90;99.90
10911;DHT22;5508;49.150;11.030;2022-10-24T11:18:42;14.80;99.90
10911;DHT22;5508;49.150;11.030;2022-10-24T11:21:44;14.70;99.90
10911;DHT22;5508;49.150;11.030;2022-10-24T11:25:00;14.70;99.90
10911;DHT22;5508;49.150;11.030;2022-10-24T11:28:11;14.60;99.90
10911;DHT22;5508;49.150;11.030;2022-10-24T11:31:19;14.70;99.90
10911;DHT22;5508;49.150;11.030;2022-10-24T11:35:27;14.70;99.90
10911;DHT22;5508;49.150;11.030;2022-10-24T11:38:07;14.80;99.90
10911;DHT22;5508;49.150;11.030;2022-10-24T11:41:34;14.80;99.90
10911;DHT22;5508;49.150;11.030;2022-10-24T11:45:00;15.00;99.90
10911;DHT22;5508;49.150;11.030;2022-10-24T11:48:55;14.80;99.90
10911;DHT22;5508;49.150;11.030;2022-10-24T11:51:37;14.80;99.90
10911;DHT22;5508;49.150;11.030;2022-10-24T11:55:07;14.90;99.90
10911;DHT22;5508;49.150;11.030;2022-10-24T11:58:14;14.80;99.90
10911;DHT22;5508;49.150;11.030;2022-10-24T12:08:44;15.00;99.90
10911;DHT22;5508;49.150;11.030;2022-10-24T12:18:36;15.20;99.90
10911;DHT22;5508;49.150;11.030;2022-10-24T12:21:43;15.20;99.90
10911;DHT22;5508;49.150;11.030;2022-10-24T12:24:46;15.20;99.90
10911;DHT22;5508;49.150;11.030;2022-10-24T12:28:00;15.10;99.90
10911;DHT22;5508;49.150;11.030;2022-10-24T12:43:48;14.80;99.90
10911;DHT22;5508;49.150;11.030;2022-10-24T12:46:53;14.80;99.90
10911;DHT22;5508;49.150;11.030;2022-10-24T12:49:55;14.80;99.90
10911;DHT22;5508;49.150;11.030;2022-10-24T13:05:38;14.80;99.90
10911;DHT22;5508;49.150;11.030;2022-10-24T13:21:52;14.90;99.90
10911;DHT22;5508;49.150;11.030;2022-10-24T13:24:56;15.00;99.90
10911;DHT22;5508;49.150;11.030;2022-10-24T13:37:43;14.80;99.90
10911;DHT22;5508;49.150;11.030;2022-10-24T13:40:46;14.90;99.90
10911;DHT22;5508;49.150;11.030;2022-10-24T13:43:48;14.90;99.90
10911;DHT22;5508;49.150;11.030;2022-10-24T13:47:21;14.90;99.90
10911;DHT22;5508;49.150;11.030;2022-10-24T13:50:27;14.90;99.90
10911;DHT22;5508;49.150;11.030;2022-10-24T13:53:31;14.90;99.90
10911;DHT22;5508;49.150;11.030;2022-10-24T13:56:38;14.90;99.90
10911;DHT22;5508;49.150;11.030;2022-10-24T13:59:40;15.00;99.90
10911;DHT22;5508;49.150;11.030;2022-10-24T14:02:41;14.90;99.90
10911;DHT22;5508;49.150;11.030;2022-10-24T14:05:54;14.90;99.90
10911;DHT22;5508;49.150;11.030;2022-10-24T14:09:00;15.00;99.90
10911;DHT22;5508;49.150;11.030;2022-10-24T14:12:01;14.80;98.70
10911;DHT22;5508;49.150;11.030;2022-10-24T14:15:03;14.80;99.90
10911;DHT22;5508;49.150;11.030;2022-10-24T14:18:12;14.80;99.60
10911;DHT22;5508;49.150;11.030;2022-10-24T14:21:19;14.80;99.90
10911;DHT22;5508;49.150;11.030;2022-10-24T14:24:21;14.80;99.90
10911;DHT22;5508;49.150;11.030;2022-10-24T14:27:22;14.80;99.60
10911;DHT22;5508;49.150;11.030;2022-10-24T14:30:26;14.80;99.20
10911;DHT22;5508;49.150;11.030;2022-10-24T14:33:28;14.80;99.90
10911;DHT22;5508;49.150;11.030;2022-10-24T14:36:31;14.80;99.90
10911;DHT22;5508;49.150;11.030;2022-10-24T14:39:33;14.80;99.00
10911;DHT22;5508;49.150;11.030;2022-10-24T14:42:34;14.80;99.90
10911;DHT22;5508;49.150;11.030;2022-10-24T14:45:34;14.80;99.90
10911;DHT22;5508;49.150;11.030;2022-10-24T14:48:35;14.80;99.70
10911;DHT22;5508;49.150;11.030;2022-10-24T14:51:39;14.70;99.90
10911;DHT22;5508;49.150;11.030;2022-10-24T14:54:42;14.70;99.90
10911;DHT22;5508;49.150;11.030;2022-10-24T14:57:50;14.70;99.90
10911;DHT22;5508;49.150;11.030;2022-10-24T15:00:53;14.60;99.90
10911;DHT22;5508;49.150;11.030;2022-10-24T15:03:58;14.50;99.90
10911;DHT22;5508;49.150;11.030;2022-10-24T15:07:35;14.50;99.90
10911;DHT22;5508;49.150;11.030;2022-10-24T15:10:39;14.40;99.90
10911;DHT22;5508;49.150;11.030;2022-10-24T15:17:28;14.30;99.90
10911;DHT22;5508;49.150;11.030;2022-10-24T15:20:37;14.30;99.90
10911;DHT22;5508;49.150;11.030;2022-10-24T15:23:49;14.20;99.90
10911;DHT22;5508;49.150;11.030;2022-10-24T15:26:51;14.30;99.90
10911;DHT22;5508;49.150;11.030;2022-10-24T15:29:51;14.20;99.90
10911;DHT22;5508;49.150;11.030;2022-10-24T15:32:53;14.10;99.90
10911;DHT22;5508;49.150;11.030;2022-10-24T15:35:54;14.10;99.90
10911;DHT22;5508;49.150;11.030;2022-10-24T15:39:01;14.10;99.90
10911;DHT22;5508;49.150;11.030;2022-10-24T15:42:02;14.00;99.90
10911;DHT22;5508;49.150;11.030;2022-10-24T15:45:11;14.00;99.90
10911;DHT22;5508;49.150;11.030;2022-10-24T15:48:12;14.00;99.90
10911;DHT22;5508;49.150;11.030;2022-10-24T15:51:17;14.00;99.90
10911;DHT22;5508;49.150;11.030;2022-10-24T15:54:20;13.90;99.90
10911;DHT22;5508;49.150;11.030;2022-10-24T15:57:21;13.90;99.90
10911;DHT22;5508;49.150;11.030;2022-10-24T16:00:22;13.80;99.90
10911;DHT22;5508;49.150;11.030;2022-10-24T16:03:24;13.70;99.90
10911;DHT22;5508;49.150;11.030;2022-10-24T16:06:26;13.70;99.90
10911;DHT22;5508;49.150;11.030;2022-10-24T16:09:26;13.70;99.90
10911;DHT22;5508;49.150;11.030;2022-10-24T16:12:27;13.70;99.90
10911;DHT22;5508;49.150;11.030;2022-10-24T16:15:33;13.60;99.90
10911;DHT22;5508;49.150;11.030;2022-10-24T16:18:34;13.60;99.90
10911;DHT22;5508;49.150;11.030;2022-10-24T16:21:35;13.50;99.90
10911;DHT22;5508;49.150;11.030;2022-10-24T16:24:36;13.50;99.90
10911;DHT22;5508;49.150;11.030;2022-10-24T16:27:36;13.50;99.90
10911;DHT22;5508;49.150;11.030;2022-10-24T16:30:39;13.50;99.90
10911;DHT22;5508;49.150;11.030;2022-10-24T16:33:40;13.40;99.90
10911;DHT22;5508;49.150;11.030;2022-10-24T16:36:41;13.30;99.90
10911;DHT22;5508;49.150;11.030;2022-10-24T16:39:42;13.30;99.90
10911;DHT22;5508;49.150;11.030;2022-10-24T16:42:42;13.30;99.90
10911;DHT22;5508;49.150;11.030;2022-10-24T16:45:43;13.20;99.90
10911;DHT22;5508;49.150;11.030;2022-10-24T16:48:46;13.20;99.90
10911;DHT22;5508;49.150;11.030;2022-10-24T16:51:47;13.20;99.90
10911;DHT22;5508;49.150;11.030;2022-10-24T16:54:48;13.10;99.90
10911;DHT22;5508;49.150;11.030;2022-10-24T16:57:48;13.00;99.90
10911;DHT22;5508;49.150;11.030;2022-10-24T17:00:49;13.10;99.90
10911;DHT22;5508;49.150;11.030;2022-10-24T17:03:50;13.00;99.90
10911;DHT22;5508;49.150;11.030;2022-10-24T17:06:50;13.00;99.90
10911;DHT22;5508;49.150;11.030;2022-10-24T17:09:51;13.00;99.90
10911;DHT22;5508;49.150;11.030;2022-10-24T17:12:52;13.00;99.90
10911;DHT22;5508;49.150;11.030;2022-10-24T17:15:53;12.90;99.90
10911;DHT22;5508;49.150;11.030;2022-10-24T17:18:53;12.90;99.90
10911;DHT22;5508;49.150;11.030;2022-10-24T17:21:54;12.90;99.90
10911;DHT22;5508;49.150;11.030;2022-10-24T17:24:55;12.80;99.90
10911;DHT22;5508;49.150;11.030;2022-10-24T17:27:56;12.80;99.90
10911;DHT22;5508;49.150;11.030;2022-10-24T17:30:56;12.90;99.90
10911;DHT22;5508;49.150;11.030;2022-10-24T17:33:57;12.80;99.90
10911;DHT22;5508;49.150;11.030;2022-10-24T17:40:17;12.70;99.90
10911;DHT22;5508;49.150;11.030;2022-10-24T17:43:23;12.70;99.90
10911;DHT22;5508;49.150;11.030;2022-10-24T17:46:25;12.70;99.90
10911;DHT22;5508;49.150;11.030;2022-10-24T17:49:26;12.60;99.90
10911;DHT22;5508;49.150;11.030;2022-10-24T17:52:26;12.50;99.90
10911;DHT22;5508;49.150;11.030;2022-10-24T17:55:27;12.50;99.90
10911;DHT22;5508;49.150;11.030;2022-10-24T17:58:27;12.50;99.90
10911;DHT22;5508;49.150;11.030;2022-10-24T18:01:28;12.50;99.90
10911;DHT22;5508;49.150;11.030;2022-10-24T18:04:29;12.50;99.90
10911;DHT22;5508;49.150;11.030;2022-10-24T18:07:29;12.40;99.90
10911;DHT22;5508;49.150;11.030;2022-10-24T18:10:30;12.40;99.90
10911;DHT22;5508;49.150;11.030;2022-10-24T18:13:31;12.40;99.90
10911;DHT22;5508;49.150;11.030;2022-10-24T18:16:32;12.40;99.90
10911;DHT22;5508;49.150;11.030;2022-10-24T18:19:32;12.40;99.90
10911;DHT22;5508;49.150;11.030;2022-10-24T18:22:35;12.50;99.90
10911;DHT22;5508;49.150;11.030;2022-10-24T18:25:37;12.40;99.90
10911;DHT22;5508;49.150;11.030;2022-10-24T18:28:43;12.30;99.90
10911;DHT22;5508;49.150;11.030;2022-10-24T18:31:44;12.30;99.90
10911;DHT22;5508;49.150;11.030;2022-10-24T18:34:45;12.20;99.90
10911;DHT22;5508;49.150;11.030;2022-10-24T18:37:45;12.30;99.90
10911;DHT22;5508;49.150;11.030;2022-10-24T18:40:46;12.20;99.90
10911;DHT22;5508;49.150;11.030;2022-10-24T18:43:47;12.20;99.90
10911;DHT22;5508;49.150;11.030;2022-10-24T18:46:49;12.20;99.90
10911;DHT22;5508;49.150;11.030;2022-10-24T18:49:50;12.20;99.90
10911;DHT22;5508;49.150;11.030;2022-10-24T18:53:05;12.20;99.90
10911;DHT22;5508;49.150;11.030;2022-10-24T18:56:08;12.30;99.90
10911;DHT22;5508;49.150;11.030;2022-10-24T18:59:15;12.30;99.90
10911;DHT22;5508;49.150;11.030;2022-10-24T19:05:46;12.30;99.90
10911;DHT22;5508;49.150;11.030;2022-10-24T19:08:47;12.40;99.90
10911;DHT22;5508;49.150;11.030;2022-10-24T19:11:48;12.40;99.90
10911;DHT22;5508;49.150;11.030;2022-10-24T19:14:50;12.30;99.90
10911;DHT22;5508;49.150;11.030;2022-10-24T19:17:51;12.30;99.90
10911;DHT22;5508;49.150;11.030;2022-10-24T19:20:51;12.20;99.90
10911;DHT22;5508;49.150;11.030;2022-10-24T19:23:52;12.20;99.90
10911;DHT22;5508;49.150;11.030;2022-10-24T19:26:53;12.20;99.90
10911;DHT22;5508;49.150;11.030;2022-10-24T19:29:54;12.30;99.90
10911;DHT22;5508;49.150;11.030;2022-10-24T19:32:54;12.30;99.90
10911;DHT22;5508;49.150;11.030;2022-10-24T19:35:55;12.30;99.90
10911;DHT22;5508;49.150;11.030;2022-10-24T19:38:56;12.30;99.90
10911;DHT22;5508;49.150;11.030;2022-10-24T19:41:57;12.30;99.90
10911;DHT22;5508;49.150;11.030;2022-10-24T19:44:57;12.30;99.90
10911;DHT22;5508;49.150;11.030;2022-10-24T19:47:58;12.30;99.90
10911;DHT22;5508;49.150;11.030;2022-10-24T19:54:03;12.30;99.90
10911;DHT22;5508;49.150;11.030;2022-10-24T19:57:04;12.30;99.90
10911;DHT22;5508;49.150;11.030;2022-10-24T20:00:05;12.30;99.90
10911;DHT22;5508;49.150;11.030;2022-10-24T20:03:05;12.30;99.90
10911;DHT22;5508;49.150;11.030;2022-10-24T20:06:07;12.30;99.90
10911;DHT22;5508;49.150;11.030;2022-10-24T20:09:09;12.40;99.90
10911;DHT22;5508;49.150;11.030;2022-10-24T20:12:10;12.40;99.90
10911;DHT22;5508;49.150;11.030;2022-10-24T20:15:11;12.40;99.90
10911;DHT22;5508;49.150;11.030;2022-10-24T20:18:12;12.30;99.90
10911;DHT22;5508;49.150;11.030;2022-10-24T20:21:15;12.20;99.90
10911;DHT22;5508;49.150;11.030;2022-10-24T20:24:17;12.10;99.90
10911;DHT22;5508;49.150;11.030;2022-10-24T20:27:17;12.10;99.90
10911;DHT22;5508;49.150;11.030;2022-10-24T20:30:18;11.90;99.90
10911;DHT22;5508;49.150;11.030;2022-10-24T20:33:19;11.80;99.90
10911;DHT22;5508;49.150;11.030;2022-10-24T20:36:20;11.70;99.90
10911;DHT22;5508;49.150;11.030;2022-10-24T20:39:20;11.70;99.90
10911;DHT22;5508;49.150;11.030;2022-10-24T20:42:21;11.60;99.90
10911;DHT22;5508;49.150;11.030;2022-10-24T20:45:21;11.60;99.90
10911;DHT22;5508;49.150;11.030;2022-10-24T20:48:22;11.50;99.90
10911;DHT22;5508;49.150;11.030;2022-10-24T20:51:23;11.50;99.90
10911;DHT22;5508;49.150;11.030;2022-10-24T20:54:23;11.40;99.90
10911;DHT22;5508;49.150;11.030;2022-10-24T20:57:24;11.50;99.90
10911;DHT22;5508;49.150;11.030;2022-10-24T21:00:25;11.40;99.90
10911;DHT22;5508;49.150;11.030;2022-10-24T21:03:25;11.40;99.90
10911;DHT22;5508;49.150;11.030;2022-10-24T21:06:31;11.40;99.90
10911;DHT22;5508;49.150;11.030;2022-10-24T21:09:32;11.40;99.90
10911;DHT22;5508;49.150;11.030;2022-10-24T21:12:34;11.40;99.90
10911;DHT22;5508;49.150;11.030;2022-10-24T21:15:34;11.30;99.90
10911;DHT22;5508;49.150;11.030;2022-10-24T21:18:35;11.30;99.90
10911;DHT22;5508;49.150;11.030;2022-10-24T21:21:37;11.30;99.90
10911;DHT22;5508;49.150;11.030;2022-10-24T21:24:38;11.30;99.90
10911;DHT22;5508;49.150;11.030;2022-10-24T21:27:38;11.20;99.90